Rockford, Minnesota
Current Conditions -  °F | °C
As of 7:35 AM on Sunday 21 Dec 2014 (Local Time) from KCFE Reporting Station
Haze Haze  
Wind Chill: 26°   Ceiling: 300
Heat Index: 32°   Visibility: 1.2mi
Dew Point: 32°   Wind: 7mph
Humidity: 98%   Direction: 140°SE
Pressure: 29.87"   Gusts: NA
Location:  45.09°N, 93.74°W
Report Text: KCFE 211335Z AUTO 14006KT 1 1/4SM BR OVC003 00/00 A2987 RMK AO2 T00011002
Loading
Personal Weather Stations






























Interactive Weather Map New forecast layout! Learn more

10-Day Weather Forecast

Advertisements
Track Severe Weather on mobile